createdAt,value
2018-02-07T00:00:38.662Z,-2.68
2018-02-07T00:01:38.685Z,-2.73
2018-02-07T00:02:38.672Z,-2.70
2018-02-07T00:03:38.721Z,-2.70
2018-02-07T00:04:38.678Z,-2.79
2018-02-07T00:05:38.686Z,-2.77
2018-02-07T00:06:38.686Z,-2.73
2018-02-07T00:07:38.695Z,-2.77
2018-02-07T00:08:38.692Z,-2.71
2018-02-07T00:09:38.714Z,-2.82
2018-02-07T00:10:38.713Z,-2.77
2018-02-07T00:11:38.712Z,-2.78
2018-02-07T00:12:38.714Z,-2.84
2018-02-07T00:13:38.714Z,-2.81
2018-02-07T00:14:38.720Z,-2.70
2018-02-07T00:15:38.725Z,-2.64
2018-02-07T00:16:38.725Z,-2.70
2018-02-07T00:17:38.734Z,-2.63
2018-02-07T00:18:38.738Z,-2.68
2018-02-07T00:19:38.735Z,-2.60
2018-02-07T00:20:38.749Z,-2.71
2018-02-07T00:21:38.748Z,-2.58
2018-02-07T00:22:38.745Z,-2.56
2018-02-07T00:23:38.750Z,-2.60
2018-02-07T00:24:38.784Z,-2.71
2018-02-07T00:25:38.900Z,-2.61
2018-02-07T00:26:38.774Z,-2.64
2018-02-07T00:27:38.770Z,-2.71
2018-02-07T00:28:38.774Z,-2.70
2018-02-07T00:29:38.782Z,-2.68
2018-02-07T00:30:38.781Z,-2.67
2018-02-07T00:31:38.786Z,-2.68
2018-02-07T00:32:38.791Z,-2.70
2018-02-07T00:33:38.794Z,-2.74
2018-02-07T00:34:38.799Z,-2.74
2018-02-07T00:35:38.796Z,-2.70
2018-02-07T00:36:38.807Z,-2.73
2018-02-07T00:37:38.806Z,-2.73
2018-02-07T00:38:38.810Z,-2.74
2018-02-07T00:39:38.809Z,-2.78
2018-02-07T00:40:38.814Z,-2.89
2018-02-07T00:41:38.819Z,-2.84
2018-02-07T00:42:38.825Z,-2.88
2018-02-07T00:43:38.825Z,-2.91
2018-02-07T00:44:38.830Z,-2.99
2018-02-07T00:45:38.838Z,-2.91
2018-02-07T00:46:38.838Z,-2.96
2018-02-07T00:47:38.844Z,-2.97
2018-02-07T00:48:38.843Z,-2.99
2018-02-07T00:49:38.847Z,-2.96
2018-02-07T00:50:38.855Z,-2.97
2018-02-07T00:51:38.857Z,-3.03
2018-02-07T00:52:38.863Z,-3.05
2018-02-07T00:53:38.871Z,-3.00
2018-02-07T00:54:38.868Z,-3.06
2018-02-07T00:55:38.867Z,-3.06
2018-02-07T00:56:38.872Z,-3.10
2018-02-07T00:57:38.880Z,-3.15
2018-02-07T00:58:38.883Z,-3.12
2018-02-07T00:59:38.894Z,-3.12
2018-02-07T01:00:38.892Z,-3.15
2018-02-07T01:01:38.889Z,-3.14
2018-02-07T01:02:38.898Z,-3.14
2018-02-07T01:03:38.895Z,-3.31
2018-02-07T01:04:38.901Z,-3.20
2018-02-07T01:05:38.909Z,-3.21
2018-02-07T01:06:38.905Z,-3.15
2018-02-07T01:07:38.914Z,-3.14
2018-02-07T01:08:38.916Z,-3.15
2018-02-07T01:09:38.925Z,-3.15
2018-02-07T01:10:38.919Z,-3.14
2018-02-07T01:11:38.927Z,-3.07
2018-02-07T01:12:38.926Z,-3.10
2018-02-07T01:13:38.929Z,-3.15
2018-02-07T01:14:38.935Z,-3.12
2018-02-07T01:15:38.936Z,-3.02
2018-02-07T01:16:38.944Z,-3.03
2018-02-07T01:17:38.943Z,-3.00
2018-02-07T01:18:38.980Z,-3.06
2018-02-07T01:19:38.954Z,-3.02
2018-02-07T01:20:38.952Z,-3.07
2018-02-07T01:21:38.961Z,-3.03
2018-02-07T01:22:38.963Z,-3.06
2018-02-07T01:23:38.968Z,-2.99
2018-02-07T01:24:38.965Z,-2.97
2018-02-07T01:25:38.968Z,-3.09
2018-02-07T01:26:38.972Z,-3.03
2018-02-07T01:27:38.986Z,-3.05
2018-02-07T01:28:38.983Z,-2.96
2018-02-07T01:29:38.985Z,-3.03
2018-02-07T01:30:38.988Z,-2.97
2018-02-07T01:31:38.993Z,-2.97
2018-02-07T01:32:38.993Z,-2.94
2018-02-07T01:33:38.997Z,-2.86
2018-02-07T01:34:39.005Z,-2.92
2018-02-07T01:35:39.004Z,-2.99
2018-02-07T01:36:39.013Z,-3.00
2018-02-07T01:37:39.013Z,-3.02
2018-02-07T01:38:39.020Z,-2.97
2018-02-07T01:39:39.017Z,-2.97
2018-02-07T01:40:39.027Z,-2.94
2018-02-07T01:41:39.031Z,-2.97
2018-02-07T01:42:39.034Z,-2.92
2018-02-07T01:43:39.032Z,-3.02
2018-02-07T01:44:39.042Z,-3.00
2018-02-07T01:45:39.039Z,-2.97
2018-02-07T01:46:39.044Z,-2.96
2018-02-07T01:47:39.046Z,-2.97
2018-02-07T01:48:39.056Z,-2.97
2018-02-07T01:49:39.059Z,-2.97
2018-02-07T01:50:39.057Z,-2.99
2018-02-07T01:51:39.062Z,-2.99
2018-02-07T01:52:39.067Z,-2.99
2018-02-07T01:53:39.073Z,-2.94
2018-02-07T01:54:39.117Z,-2.96
2018-02-07T01:55:39.077Z,-2.96
2018-02-07T01:56:39.085Z,-2.89
2018-02-07T01:57:39.083Z,-2.94
2018-02-07T01:58:39.091Z,-2.94
2018-02-07T01:59:39.089Z,-2.92
2018-02-07T02:00:39.100Z,-2.86
2018-02-07T02:01:39.103Z,-2.84
2018-02-07T02:02:39.099Z,-2.96
2018-02-07T02:03:39.104Z,-2.94
2018-02-07T02:04:39.106Z,-2.92
2018-02-07T02:05:39.113Z,-2.86
2018-02-07T02:06:39.120Z,-2.92
2018-02-07T02:07:39.123Z,-2.92
2018-02-07T02:08:39.122Z,-2.84
2018-02-07T02:09:39.131Z,-2.97
2018-02-07T02:10:39.130Z,-2.97
2018-02-07T02:11:39.138Z,-2.89
2018-02-07T02:12:39.138Z,-2.99
2018-02-07T02:13:39.141Z,-2.97
2018-02-07T02:14:39.144Z,-2.92
2018-02-07T02:15:39.155Z,-2.99
2018-02-07T02:16:39.159Z,-2.99
2018-02-07T02:17:39.158Z,-2.86
2018-02-07T02:18:39.164Z,-2.96
2018-02-07T02:19:39.161Z,-2.94
2018-02-07T02:20:39.171Z,-2.82
2018-02-07T02:21:39.176Z,-2.96
2018-02-07T02:22:39.179Z,-2.85
2018-02-07T02:23:39.182Z,-2.82
2018-02-07T02:24:39.180Z,-2.92
2018-02-07T02:25:39.190Z,-2.85
2018-02-07T02:26:39.193Z,-2.84
2018-02-07T02:27:39.195Z,-2.81
2018-02-07T02:28:39.201Z,-2.85
2018-02-07T02:29:39.204Z,-2.91
2018-02-07T02:30:39.203Z,-2.82
2018-02-07T02:31:39.212Z,-2.81
2018-02-07T02:32:39.220Z,-2.84
2018-02-07T02:33:39.219Z,-2.85
2018-02-07T02:34:39.216Z,-2.79
2018-02-07T02:35:39.226Z,-2.84
2018-02-07T02:36:39.230Z,-2.82
2018-02-07T02:37:39.234Z,-2.81
2018-02-07T02:38:39.237Z,-2.84
2018-02-07T02:39:39.235Z,-2.79
2018-02-07T02:40:39.239Z,-2.81
2018-02-07T02:41:39.244Z,-2.85
2018-02-07T02:42:39.254Z,-2.79
2018-02-07T02:43:39.249Z,-2.86
2018-02-07T02:44:39.260Z,-2.84
2018-02-07T02:45:39.258Z,-2.79
2018-02-07T02:46:39.261Z,-2.86
2018-02-07T02:47:39.269Z,-2.86
2018-02-07T02:48:39.275Z,-2.79
2018-02-07T02:49:39.272Z,-2.79
2018-02-07T02:50:39.277Z,-2.84
2018-02-07T02:51:39.282Z,-2.79
2018-02-07T02:52:39.284Z,-2.85
2018-02-07T02:53:39.286Z,-2.85
2018-02-07T02:54:39.302Z,-2.86
2018-02-07T02:55:39.298Z,-2.82
2018-02-07T02:56:39.297Z,-2.86
2018-02-07T02:57:39.301Z,-2.81
2018-02-07T02:58:39.306Z,-2.84
2018-02-07T02:59:39.314Z,-2.82
2018-02-07T03:00:39.314Z,-2.82
2018-02-07T03:01:39.322Z,-2.82
2018-02-07T03:02:39.325Z,-2.91
2018-02-07T03:03:39.328Z,-2.81
2018-02-07T03:04:39.332Z,-2.85
2018-02-07T03:05:39.330Z,-2.82
2018-02-07T03:06:39.335Z,-2.88
2018-02-07T03:07:39.344Z,-2.86
2018-02-07T03:08:39.341Z,-2.86
2018-02-07T03:09:39.351Z,-2.89
2018-02-07T03:10:39.349Z,-2.86
2018-02-07T03:11:39.358Z,-2.85
2018-02-07T03:12:39.356Z,-2.88
2018-02-07T03:13:39.360Z,-2.88
2018-02-07T03:14:39.368Z,-2.86
2018-02-07T03:15:39.374Z,-2.97
2018-02-07T03:16:39.376Z,-2.91
2018-02-07T03:17:39.375Z,-2.91
2018-02-07T03:18:39.379Z,-2.91
2018-02-07T03:19:39.382Z,-2.88
2018-02-07T03:20:39.393Z,-2.88
2018-02-07T03:21:39.389Z,-2.88
2018-02-07T03:22:39.398Z,-2.88
2018-02-07T03:23:39.402Z,-2.85
2018-02-07T03:24:39.400Z,-2.82
2018-02-07T03:25:39.406Z,-2.99
2018-02-07T03:26:39.413Z,-2.96
2018-02-07T03:27:39.411Z,-2.84
2018-02-07T03:28:39.419Z,-2.97
2018-02-07T03:29:39.424Z,-3.00
2018-02-07T03:30:39.426Z,-2.97
2018-02-07T03:31:39.425Z,-2.97
2018-02-07T03:32:39.430Z,-2.99
2018-02-07T03:33:39.439Z,-3.05
2018-02-07T03:34:39.434Z,-2.94
2018-02-07T03:35:39.440Z,-2.96
2018-02-07T03:36:39.449Z,-3.03
2018-02-07T03:37:39.451Z,-3.07
2018-02-07T03:38:39.457Z,-3.03
2018-02-07T03:39:39.453Z,-3.02
2018-02-07T03:40:39.457Z,-3.00
2018-02-07T03:41:39.467Z,-3.05
2018-02-07T03:42:39.472Z,-3.02
2018-02-07T03:43:39.469Z,-3.02
2018-02-07T03:44:39.478Z,-3.00
2018-02-07T03:45:39.477Z,-3.02
2018-02-07T03:46:39.478Z,-3.02
2018-02-07T03:47:39.484Z,-3.00
2018-02-07T03:48:39.493Z,-3.02
2018-02-07T03:49:39.497Z,-3.03
2018-02-07T03:50:39.499Z,-3.10
2018-02-07T03:51:39.503Z,-3.10
2018-02-07T03:52:39.501Z,-3.10
2018-02-07T03:53:39.514Z,-3.07
2018-02-07T03:54:39.513Z,-3.07
2018-02-07T03:55:39.519Z,-3.07
2018-02-07T03:56:39.523Z,-3.09
2018-02-07T03:57:39.526Z,-3.14
2018-02-07T03:58:39.528Z,-3.12
2018-02-07T03:59:39.532Z,-3.17
2018-02-07T04:00:39.531Z,-3.14
2018-02-07T04:01:39.534Z,-3.14
2018-02-07T04:02:39.536Z,-3.12
2018-02-07T04:03:39.544Z,-3.14
2018-02-07T04:04:39.550Z,-3.17
2018-02-07T04:05:39.554Z,-3.18
2018-02-07T04:06:39.558Z,-3.20
2018-02-07T04:07:39.555Z,-3.17
2018-02-07T04:08:39.558Z,-3.23
2018-02-07T04:09:39.563Z,-3.24
2018-02-07T04:10:39.569Z,-3.24
2018-02-07T04:11:39.568Z,-3.31
2018-02-07T04:12:39.579Z,-3.36
2018-02-07T04:13:39.586Z,-3.27
2018-02-07T04:14:39.586Z,-3.30
2018-02-07T04:15:39.584Z,-3.36
2018-02-07T04:16:39.587Z,-3.25
2018-02-07T04:17:39.596Z,-3.36
2018-02-07T04:18:39.601Z,-3.35
2018-02-07T04:19:39.603Z,-3.30
2018-02-07T04:20:39.601Z,-3.28
2018-02-07T04:21:39.605Z,-3.30
2018-02-07T04:22:39.613Z,-3.35
2018-02-07T04:23:39.612Z,-3.31
2018-02-07T04:24:39.620Z,-3.33
2018-02-07T04:25:39.619Z,-3.36
2018-02-07T04:26:39.622Z,-3.33
2018-02-07T04:27:39.626Z,-3.30
2018-02-07T04:28:39.634Z,-3.36
2018-02-07T04:29:39.638Z,-3.31
2018-02-07T04:30:39.636Z,-3.35
2018-02-07T04:31:39.640Z,-3.33
2018-02-07T04:32:39.648Z,-3.39
2018-02-07T04:33:39.652Z,-3.45
2018-02-07T04:34:39.649Z,-3.42
2018-02-07T04:35:39.652Z,-3.45
2018-02-07T04:36:39.657Z,-3.52
2018-02-07T04:37:39.659Z,-3.57
2018-02-07T04:38:39.667Z,-3.54
2018-02-07T04:39:39.673Z,-3.53
2018-02-07T04:40:39.670Z,-3.53
2018-02-07T04:41:39.674Z,-3.54
2018-02-07T04:42:39.683Z,-3.57
2018-02-07T04:43:39.687Z,-3.56
2018-02-07T04:44:39.689Z,-3.60
2018-02-07T04:45:39.692Z,-3.57
2018-02-07T04:46:39.699Z,-3.62
2018-02-07T04:47:39.699Z,-3.60
2018-02-07T04:48:39.705Z,-3.69
2018-02-07T04:49:39.703Z,-3.72
2018-02-07T04:50:39.711Z,-3.64
2018-02-07T04:51:39.712Z,-3.72
2018-02-07T04:52:39.719Z,-3.67
2018-02-07T04:53:39.720Z,-3.66
2018-02-07T04:54:39.724Z,-3.63
2018-02-07T04:55:39.725Z,-3.69
2018-02-07T04:56:39.724Z,-3.71
2018-02-07T04:57:39.732Z,-3.71
2018-02-07T04:58:39.736Z,-3.76
2018-02-07T04:59:39.735Z,-3.75
2018-02-07T05:00:39.744Z,-3.72
2018-02-07T05:01:39.745Z,-3.82
2018-02-07T05:02:39.753Z,-3.69
2018-02-07T05:03:39.752Z,-3.83
2018-02-07T05:04:39.758Z,-3.88
2018-02-07T05:05:39.757Z,-3.82
2018-02-07T05:06:39.755Z,-3.82
2018-02-07T05:07:39.759Z,-3.85
2018-02-07T05:08:39.768Z,-3.88
2018-02-07T05:09:39.771Z,-3.90
2018-02-07T05:10:39.768Z,-3.94
2018-02-07T05:11:39.771Z,-3.94
2018-02-07T05:12:39.779Z,-3.94
2018-02-07T05:13:39.783Z,-3.91
2018-02-07T05:14:39.778Z,-4.01
2018-02-07T05:15:39.788Z,-3.96
2018-02-07T05:16:39.792Z,-4.01
2018-02-07T05:17:39.790Z,-4.01
2018-02-07T05:18:39.796Z,-4.00
2018-02-07T05:19:39.799Z,-4.01
2018-02-07T05:20:39.803Z,-3.96
2018-02-07T05:21:39.801Z,-4.00
2018-02-07T05:22:39.804Z,-4.00
2018-02-07T05:23:39.805Z,-3.97
2018-02-07T05:24:39.814Z,-3.94
2018-02-07T05:25:39.818Z,-3.96
2018-02-07T05:26:39.819Z,-3.97
2018-02-07T05:27:39.822Z,-3.97
2018-02-07T05:28:39.827Z,-4.04
2018-02-07T05:29:39.828Z,-4.03
2018-02-07T05:30:39.826Z,-3.99
2018-02-07T05:31:39.835Z,-4.11
2018-02-07T05:32:39.839Z,-4.12
2018-02-07T05:33:39.834Z,-4.11
2018-02-07T05:34:39.839Z,-4.03
2018-02-07T05:35:39.847Z,-4.10
2018-02-07T05:36:39.851Z,-4.17
2018-02-07T05:37:39.847Z,-4.10
2018-02-07T05:38:39.857Z,-4.04
2018-02-07T05:39:39.858Z,-4.12
2018-02-07T05:40:39.856Z,-4.14
2018-02-07T05:41:39.864Z,-4.15
2018-02-07T05:42:39.859Z,-4.17
2018-02-07T05:43:39.868Z,-4.12
2018-02-07T05:44:39.867Z,-4.20
2018-02-07T05:45:39.876Z,-4.25
2018-02-07T05:46:39.872Z,-4.20
2018-02-07T05:47:39.879Z,-4.30
2018-02-07T05:48:39.878Z,-4.28
2018-02-07T05:49:39.888Z,-4.30
2018-02-07T05:50:39.885Z,-4.18
2018-02-07T05:51:39.898Z,-4.28
2018-02-07T05:52:39.890Z,-4.25
2018-02-07T05:53:39.893Z,-4.25
2018-02-07T05:54:39.901Z,-4.28
2018-02-07T05:55:39.898Z,-4.30
2018-02-07T05:56:39.905Z,-4.30
2018-02-07T05:57:39.908Z,-4.25
2018-02-07T05:58:39.914Z,-4.30
2018-02-07T05:59:39.909Z,-4.25
2018-02-07T06:00:39.917Z,-4.32
2018-02-07T06:01:39.923Z,-4.35
2018-02-07T06:02:39.922Z,-4.33
2018-02-07T06:03:39.919Z,-4.30
2018-02-07T06:04:39.928Z,-4.32
2018-02-07T06:05:39.931Z,-4.29
2018-02-07T06:06:39.927Z,-4.32
2018-02-07T06:07:39.934Z,-4.32
2018-02-07T06:08:39.937Z,-4.36
2018-02-07T06:09:39.935Z,-4.32
2018-02-07T06:10:39.942Z,-4.32
2018-02-07T06:11:39.939Z,-4.32
2018-02-07T06:12:39.949Z,-4.35
2018-02-07T06:13:39.946Z,-4.35
2018-02-07T06:14:39.952Z,-4.28
2018-02-07T06:15:39.951Z,-4.24
2018-02-07T06:16:39.954Z,-4.24
2018-02-07T06:17:39.966Z,-4.24
2018-02-07T06:18:39.957Z,-4.22
2018-02-07T06:19:39.967Z,-4.22
2018-02-07T06:20:39.970Z,-4.21
2018-02-07T06:21:39.973Z,-4.22
2018-02-07T06:22:39.976Z,-4.15
2018-02-07T06:23:39.972Z,-4.12
2018-02-07T06:24:39.975Z,-4.17
2018-02-07T06:25:39.985Z,-4.17
2018-02-07T06:26:39.985Z,-4.18
2018-02-07T06:27:39.991Z,-4.17
2018-02-07T06:28:39.991Z,-4.12
2018-02-07T06:29:39.988Z,-4.12
2018-02-07T06:30:39.991Z,-4.10
2018-02-07T06:31:39.993Z,-4.14
2018-02-07T06:32:40.003Z,-4.01
2018-02-07T06:33:40.007Z,-4.01
2018-02-07T06:34:40.006Z,-4.11
2018-02-07T06:35:40.005Z,-4.10
2018-02-07T06:36:40.016Z,-3.99
2018-02-07T06:37:40.011Z,-4.01
2018-02-07T06:38:40.013Z,-4.00
2018-02-07T06:39:40.015Z,-3.99
2018-02-07T06:40:40.024Z,-4.10
2018-02-07T06:41:40.025Z,-4.06
2018-02-07T06:42:40.029Z,-4.14
2018-02-07T06:43:40.035Z,-4.14
2018-02-07T06:44:40.029Z,-4.07
2018-02-07T06:45:40.032Z,-4.10
2018-02-07T06:46:40.054Z,-4.20
2018-02-07T06:47:40.038Z,-4.18
2018-02-07T06:48:40.043Z,-4.12
2018-02-07T06:49:40.048Z,-4.15
2018-02-07T06:50:40.049Z,-4.10
2018-02-07T06:51:40.064Z,-4.20
2018-02-07T06:52:40.058Z,-4.12
2018-02-07T06:53:40.054Z,-4.14
2018-02-07T06:54:40.056Z,-4.12
2018-02-07T06:55:40.064Z,-4.12
2018-02-07T06:56:40.076Z,-4.28
2018-02-07T06:57:40.069Z,-4.25
2018-02-07T06:58:40.066Z,-4.20
2018-02-07T06:59:40.067Z,-4.24
2018-02-07T07:00:40.076Z,-4.17
2018-02-07T07:01:40.073Z,-4.11
2018-02-07T07:02:40.080Z,-4.12
2018-02-07T07:03:40.080Z,-4.07
2018-02-07T07:04:40.092Z,-4.21
2018-02-07T07:05:40.088Z,-4.24
2018-02-07T07:06:40.088Z,-4.14
2018-02-07T07:07:40.088Z,-4.14
2018-02-07T07:08:40.096Z,-4.10
2018-02-07T07:09:40.093Z,-4.14
2018-02-07T07:10:40.100Z,-4.18
2018-02-07T07:11:40.101Z,-4.14
2018-02-07T07:12:40.105Z,-4.15
2018-02-07T07:13:40.109Z,-4.17
2018-02-07T07:14:40.111Z,-4.10
2018-02-07T07:15:40.114Z,-4.15
2018-02-07T07:16:40.116Z,-4.15
2018-02-07T07:17:40.120Z,-4.39
2018-02-07T07:18:40.116Z,-4.50
2018-02-07T07:19:40.124Z,-4.32
2018-02-07T07:20:40.123Z,-4.40
2018-02-07T07:21:40.125Z,-4.35
2018-02-07T07:22:40.135Z,-4.35
2018-02-07T07:23:40.131Z,-4.25
2018-02-07T07:24:40.139Z,-4.24
2018-02-07T07:25:40.142Z,-4.20
2018-02-07T07:26:40.142Z,-4.12
2018-02-07T07:27:40.145Z,-4.20
2018-02-07T07:28:40.151Z,-4.17
2018-02-07T07:29:40.145Z,-4.12
2018-02-07T07:30:40.147Z,-4.24
2018-02-07T07:31:40.152Z,-4.29
2018-02-07T07:32:40.152Z,-4.24
2018-02-07T07:33:40.156Z,-4.22
2018-02-07T07:34:40.165Z,-4.18
2018-02-07T07:35:40.167Z,-4.14
2018-02-07T07:36:40.175Z,-4.03
2018-02-07T07:37:40.167Z,-3.97
2018-02-07T07:38:40.169Z,-4.17
2018-02-07T07:39:40.176Z,-4.32
2018-02-07T07:40:40.180Z,-4.49
2018-02-07T07:41:40.176Z,-4.61
2018-02-07T07:42:40.179Z,-4.61
2018-02-07T07:43:40.184Z,-4.54
2018-02-07T07:44:40.191Z,-4.43
2018-02-07T07:45:40.188Z,-4.39
2018-02-07T07:46:40.202Z,-4.30
2018-02-07T07:47:40.198Z,-4.30
2018-02-07T07:48:40.202Z,-4.30
2018-02-07T07:49:40.200Z,-4.38
2018-02-07T07:50:40.204Z,-4.46
2018-02-07T07:51:40.208Z,-4.60
2018-02-07T07:52:40.216Z,-4.57
2018-02-07T07:53:40.209Z,-4.61
2018-02-07T07:54:40.211Z,-4.56
2018-02-07T07:55:40.217Z,-4.42
2018-02-07T07:56:40.222Z,-4.30
2018-02-07T07:57:40.221Z,-4.11
2018-02-07T07:58:40.233Z,-4.00
2018-02-07T07:59:40.230Z,-3.97
2018-02-07T08:00:40.232Z,-3.86
2018-02-07T08:01:40.236Z,-3.76
2018-02-07T08:02:40.237Z,-3.59
2018-02-07T08:03:40.239Z,-3.75
2018-02-07T08:04:40.245Z,-3.67
2018-02-07T08:05:40.240Z,-3.46
2018-02-07T08:06:40.241Z,-3.82
2018-02-07T08:07:40.246Z,-4.15
2018-02-07T08:08:40.247Z,-4.22
2018-02-07T08:09:40.252Z,-4.15
2018-02-07T08:10:40.253Z,-4.06
2018-02-07T08:11:40.262Z,-4.03
2018-02-07T08:12:40.260Z,-3.85
2018-02-07T08:13:40.262Z,-3.78
2018-02-07T08:14:40.270Z,-3.79
2018-02-07T08:15:40.270Z,-3.76
2018-02-07T08:16:40.270Z,-3.90
2018-02-07T08:17:40.279Z,-4.07
2018-02-07T08:18:40.281Z,-4.03
2018-02-07T08:19:40.277Z,-3.93
2018-02-07T08:20:40.287Z,-3.83
2018-02-07T08:21:40.285Z,-3.64
2018-02-07T08:22:40.292Z,-3.63
2018-02-07T08:23:40.295Z,-3.56
2018-02-07T08:24:40.293Z,-3.60
2018-02-07T08:25:40.295Z,-3.71
2018-02-07T08:26:40.303Z,-3.85
2018-02-07T08:27:40.301Z,-3.91
2018-02-07T08:28:40.310Z,-3.85
2018-02-07T08:29:40.307Z,-3.67
2018-02-07T08:30:40.316Z,-3.56
2018-02-07T08:31:40.313Z,-3.63
2018-02-07T08:32:40.317Z,-3.48
2018-02-07T08:33:40.318Z,-3.35
2018-02-07T08:34:40.330Z,-3.45
2018-02-07T08:35:40.325Z,-3.62
2018-02-07T08:36:40.334Z,-3.64
2018-02-07T08:37:40.332Z,-4.03
2018-02-07T08:38:40.333Z,-4.32
2018-02-07T08:39:40.342Z,-4.53
2018-02-07T08:40:40.341Z,-4.67
2018-02-07T08:41:40.346Z,-4.63
2018-02-07T08:42:40.346Z,-4.56
2018-02-07T08:43:40.351Z,-4.60
2018-02-07T08:44:40.358Z,-4.53
2018-02-07T08:45:40.355Z,-4.58
2018-02-07T08:46:40.357Z,-4.43
2018-02-07T08:47:40.362Z,-4.42
2018-02-07T08:48:40.364Z,-4.50
2018-02-07T08:49:40.366Z,-4.61
2018-02-07T08:50:40.373Z,-4.53
2018-02-07T08:51:40.381Z,-4.35
2018-02-07T08:52:40.382Z,-4.49
2018-02-07T08:53:40.386Z,-4.51
2018-02-07T08:54:40.407Z,-4.46
2018-02-07T08:55:40.383Z,-4.46
2018-02-07T08:56:40.391Z,-4.33
2018-02-07T08:57:40.389Z,-4.06
2018-02-07T08:58:40.398Z,-3.85
2018-02-07T08:59:40.396Z,-3.71
2018-02-07T09:00:40.398Z,-3.86
2018-02-07T09:01:40.409Z,-3.90
2018-02-07T09:02:40.408Z,-4.18
2018-02-07T09:03:40.407Z,-4.49
2018-02-07T09:04:40.415Z,-4.57
2018-02-07T09:05:40.416Z,-4.46
2018-02-07T09:06:40.414Z,-4.35
2018-02-07T09:07:40.424Z,-4.15
2018-02-07T09:08:40.423Z,-3.85
2018-02-07T09:09:40.429Z,-3.71
2018-02-07T09:10:40.425Z,-3.45
2018-02-07T09:11:40.428Z,-3.31
2018-02-07T09:12:40.433Z,-3.62
2018-02-07T09:13:40.434Z,-3.71
2018-02-07T09:14:40.437Z,-3.39
2018-02-07T09:15:40.445Z,-3.12
2018-02-07T09:16:40.445Z,-2.96
2018-02-07T09:17:40.449Z,-2.70
2018-02-07T09:18:40.450Z,-2.48
2018-02-07T09:19:40.452Z,-2.29
2018-02-07T09:20:40.457Z,-1.97
2018-02-07T09:21:40.464Z,-2.15
2018-02-07T09:22:40.483Z,-2.70
2018-02-07T09:23:40.466Z,-2.79
2018-02-07T09:24:40.503Z,-3.17
2018-02-07T09:25:40.473Z,-3.15
2018-02-07T09:26:40.482Z,-3.03
2018-02-07T09:27:40.486Z,-3.31
2018-02-07T09:28:40.484Z,-3.52
2018-02-07T09:29:40.486Z,-3.85
2018-02-07T09:30:40.495Z,-4.21
2018-02-07T09:31:40.497Z,-4.32
2018-02-07T09:32:40.506Z,-4.33
2018-02-07T09:33:40.504Z,-3.91
2018-02-07T09:34:40.509Z,-3.48
2018-02-07T09:35:40.530Z,-3.30
2018-02-07T09:36:40.519Z,-2.85
2018-02-07T09:37:40.515Z,-2.58
2018-02-07T09:38:40.524Z,-2.35
2018-02-07T09:39:40.524Z,-2.24
2018-02-07T09:40:40.533Z,-2.60
2018-02-07T09:41:40.537Z,-2.64
2018-02-07T09:42:40.532Z,-2.67
2018-02-07T09:43:40.541Z,-2.71
2018-02-07T09:44:40.540Z,-2.82
2018-02-07T09:45:40.551Z,-3.10
2018-02-07T09:46:40.553Z,-3.18
2018-02-07T09:47:40.558Z,-3.72
2018-02-07T09:48:40.557Z,-3.43
2018-02-07T09:49:40.566Z,-3.30
2018-02-07T09:50:40.569Z,-3.27
2018-02-07T09:51:40.586Z,-3.20
2018-02-07T09:52:40.582Z,-3.05
2018-02-07T09:53:40.580Z,-3.12
2018-02-07T09:54:40.583Z,-2.78
2018-02-07T09:55:40.582Z,-3.12
2018-02-07T09:56:40.592Z,-3.18
2018-02-07T09:57:40.596Z,-3.53
2018-02-07T09:58:40.593Z,-3.35
2018-02-07T09:59:40.603Z,-3.17
2018-02-07T10:00:40.602Z,-3.45
2018-02-07T10:01:40.615Z,-3.17
2018-02-07T10:02:40.615Z,-3.02
2018-02-07T10:03:40.619Z,-3.09
2018-02-07T10:04:40.618Z,-3.20
2018-02-07T10:05:40.623Z,-3.17
2018-02-07T10:06:40.625Z,-3.00
2018-02-07T10:07:40.628Z,-3.35
2018-02-07T10:08:40.652Z,-3.18
2018-02-07T10:09:40.645Z,-3.27
2018-02-07T10:10:40.646Z,-3.17
2018-02-07T10:11:40.644Z,-2.79
2018-02-07T10:12:40.670Z,-3.17
2018-02-07T10:13:40.692Z,-3.17
2018-02-07T10:14:40.654Z,-3.35
2018-02-07T10:15:40.664Z,-3.41
2018-02-07T10:16:40.665Z,-3.60
2018-02-07T10:17:40.667Z,-3.85
2018-02-07T10:18:40.678Z,-4.03
2018-02-07T10:19:40.677Z,-3.85
2018-02-07T10:20:40.681Z,-3.67
2018-02-07T10:21:40.688Z,-3.67
2018-02-07T10:22:40.735Z,-3.42
2018-02-07T10:23:40.693Z,-3.45
2018-02-07T10:24:40.702Z,-3.64
2018-02-07T10:25:40.705Z,-3.33
2018-02-07T10:26:40.706Z,-3.14
2018-02-07T10:27:40.717Z,-3.21
2018-02-07T10:28:40.710Z,-2.73
2018-02-07T10:29:40.723Z,-2.74
2018-02-07T10:30:40.722Z,-3.12
2018-02-07T10:31:40.730Z,-2.94
2018-02-07T10:32:40.731Z,-3.00
2018-02-07T10:33:40.731Z,-3.36
2018-02-07T10:34:40.736Z,-3.54
2018-02-07T10:35:40.736Z,-3.69
2018-02-07T10:36:40.740Z,-3.39
2018-02-07T10:37:40.750Z,-3.35
2018-02-07T10:38:40.751Z,-3.17
2018-02-07T10:39:40.749Z,-3.15
2018-02-07T10:40:40.755Z,-3.05
2018-02-07T10:41:40.763Z,-2.88
2018-02-07T10:42:40.767Z,-2.52
2018-02-07T10:43:40.772Z,-2.13
2018-02-07T10:44:40.774Z,-1.94
2018-02-07T10:45:40.779Z,-2.20
2018-02-07T10:46:40.784Z,-2.67
2018-02-07T10:47:40.786Z,-2.64
2018-02-07T10:48:40.784Z,-2.58
2018-02-07T10:49:40.792Z,-2.46
2018-02-07T10:50:40.798Z,-2.74
2018-02-07T10:51:40.803Z,-3.05
2018-02-07T10:52:40.811Z,-3.15
2018-02-07T10:53:40.811Z,-3.03
2018-02-07T10:54:40.815Z,-2.82
2018-02-07T10:55:40.813Z,-2.67
2018-02-07T10:56:40.818Z,-2.61
2018-02-07T10:57:40.823Z,-2.74
2018-02-07T10:58:40.824Z,-2.94
2018-02-07T10:59:40.828Z,-3.09
2018-02-07T11:00:40.833Z,-3.43
2018-02-07T11:01:40.842Z,-3.85
2018-02-07T11:02:40.846Z,-3.66
2018-02-07T11:03:40.844Z,-3.81
2018-02-07T11:04:40.848Z,-3.72
2018-02-07T11:05:40.861Z,-3.63
2018-02-07T11:06:40.856Z,-3.62
2018-02-07T11:07:40.864Z,-3.30
2018-02-07T11:08:40.868Z,-3.15
2018-02-07T11:09:40.869Z,-2.79
2018-02-07T11:10:40.872Z,-2.40
2018-02-07T11:11:40.879Z,-2.10
2018-02-07T11:12:40.886Z,-1.73
2018-02-07T11:13:40.886Z,-1.56
2018-02-07T11:14:40.887Z,-1.41
2018-02-07T11:15:40.898Z,-1.52
2018-02-07T11:16:40.901Z,-1.43
2018-02-07T11:17:40.900Z,-1.31
2018-02-07T11:18:40.906Z,-1.90
2018-02-07T11:19:40.916Z,-2.55
2018-02-07T11:20:40.918Z,-2.43
2018-02-07T11:21:40.921Z,-2.40
2018-02-07T11:22:40.929Z,-2.27
2018-02-07T11:23:40.931Z,-2.23
2018-02-07T11:24:40.932Z,-2.20
2018-02-07T11:25:40.936Z,-1.97
2018-02-07T11:26:40.940Z,-1.77
2018-02-07T11:27:40.948Z,-1.56
2018-02-07T11:28:40.949Z,-1.85
2018-02-07T11:29:40.956Z,-1.59
2018-02-07T11:30:40.963Z,-1.28
2018-02-07T11:31:40.963Z,-1.10
2018-02-07T11:32:40.972Z,-1.16
2018-02-07T11:33:40.977Z,-1.56
2018-02-07T11:34:40.975Z,-1.74
2018-02-07T11:35:40.987Z,-1.54
2018-02-07T11:36:40.991Z,-1.77
2018-02-07T11:37:41.004Z,-2.12
2018-02-07T11:38:41.004Z,-1.97
2018-02-07T11:39:41.005Z,-1.70
2018-02-07T11:40:41.012Z,-1.61
2018-02-07T11:41:41.014Z,-1.59
2018-02-07T11:42:41.020Z,-1.84
2018-02-07T11:43:41.018Z,-2.00
2018-02-07T11:44:41.028Z,-2.23
2018-02-07T11:45:41.031Z,-2.16
2018-02-07T11:46:41.031Z,-1.92
2018-02-07T11:47:41.037Z,-1.88
2018-02-07T11:48:41.047Z,-1.94
2018-02-07T11:49:41.047Z,-2.05
2018-02-07T11:50:41.060Z,-1.82
2018-02-07T11:51:41.061Z,-1.67
2018-02-07T11:52:41.062Z,-1.62
2018-02-07T11:53:41.066Z,-1.51
2018-02-07T11:54:41.072Z,-1.66
2018-02-07T11:55:41.076Z,-1.87
2018-02-07T11:56:41.080Z,-1.85
2018-02-07T11:57:41.087Z,-1.73
2018-02-07T11:58:41.094Z,-1.49
2018-02-07T11:59:41.100Z,-1.28
2018-02-07T12:00:41.103Z,-1.12
2018-02-07T12:01:41.106Z,-0.97
2018-02-07T12:02:41.119Z,-0.76
2018-02-07T12:03:41.114Z,-0.86
2018-02-07T12:04:41.149Z,-1.55
2018-02-07T12:05:41.125Z,-1.88
2018-02-07T12:06:41.134Z,-2.77
2018-02-07T12:07:41.134Z,-2.67
2018-02-07T12:08:41.146Z,-2.53
2018-02-07T12:09:41.150Z,-2.34
2018-02-07T12:10:41.149Z,-2.30
2018-02-07T12:11:41.155Z,-2.16
2018-02-07T12:12:41.161Z,-2.67
2018-02-07T12:13:41.165Z,-2.61
2018-02-07T12:14:41.168Z,-2.61
2018-02-07T12:15:41.181Z,-2.66
2018-02-07T12:16:41.183Z,-2.74
2018-02-07T12:17:41.189Z,-2.73
2018-02-07T12:18:41.190Z,-2.81
2018-02-07T12:19:41.197Z,-3.17
2018-02-07T12:20:41.204Z,-3.49
2018-02-07T12:21:41.203Z,-3.63
2018-02-07T12:22:41.206Z,-3.86
2018-02-07T12:23:41.212Z,-4.50
2018-02-07T12:24:41.220Z,-4.58
2018-02-07T12:25:41.227Z,-4.50
2018-02-07T12:26:41.233Z,-4.40
2018-02-07T12:27:41.234Z,-4.40
2018-02-07T12:28:41.233Z,-4.20
2018-02-07T12:29:41.245Z,-4.06
2018-02-07T12:30:41.248Z,-3.97
2018-02-07T12:31:41.253Z,-4.04
2018-02-07T12:32:41.255Z,-4.33
2018-02-07T12:33:41.262Z,-4.30
2018-02-07T12:34:41.264Z,-4.04
2018-02-07T12:35:41.261Z,-4.10
2018-02-07T12:36:41.267Z,-3.88
2018-02-07T12:37:41.275Z,-3.85
2018-02-07T12:38:41.279Z,-3.71
2018-02-07T12:39:41.281Z,-3.52
2018-02-07T12:40:41.285Z,-3.28
2018-02-07T12:41:41.288Z,-3.14
2018-02-07T12:42:41.287Z,-2.86
2018-02-07T12:43:41.290Z,-2.88
2018-02-07T12:44:41.295Z,-2.86
2018-02-07T12:45:41.303Z,-3.48
2018-02-07T12:46:41.306Z,-3.83
2018-02-07T12:47:41.305Z,-3.97
2018-02-07T12:48:41.308Z,-3.85
2018-02-07T12:49:41.318Z,-3.69
2018-02-07T12:50:41.316Z,-3.43
2018-02-07T12:51:41.325Z,-3.39
2018-02-07T12:52:41.329Z,-3.45